Terminal Aerodrome Forecast
Issued by NWS

Home | Current Version | Previous Version | Text Only | Print | Product List | Glossary On
Versions: 1 2 3 4 5 6 7 8 9 10 11 12 13 14 15 16 17 18 19 20 21 22 23 24 25 26 27 28 29
000
FTPQ31 PGUM 272320
TAFGUM
TAF

TAF
PKWA 272320Z 2800/2824 04008KT P6SM VCSH FEW015 SCT025 BKN150
      TEMPO 2800/2803 3SM +TSRA SCT015CB OVC025
     FM281500 13010KT P6SM VCSH SCT018 SCT030 BKN120=

USA.gov is the U.S. government's official web portal to all federal, state and local government web resources and services.